createdAt,value
2023-04-08T00:01:42.470Z,12.18
2023-04-08T00:04:10.094Z,12.18
2023-04-08T00:06:37.647Z,10.18
2023-04-08T00:09:04.964Z,10.68
2023-04-08T00:11:32.978Z,11.35
2023-04-08T00:14:00.709Z,11.30
2023-04-08T00:16:28.092Z,10.60
2023-04-08T00:18:55.626Z,10.30
2023-04-08T00:21:23.565Z,10.60
2023-04-08T00:23:50.906Z,9.52
2023-04-08T00:26:18.210Z,9.52
2023-04-08T00:28:46.008Z,9.40
2023-04-08T00:31:13.409Z,9.98
2023-04-08T00:33:40.924Z,10.48
2023-04-08T00:36:08.311Z,9.85
2023-04-08T00:38:35.705Z,9.40
2023-04-08T00:41:03.111Z,9.57
2023-04-08T00:43:30.434Z,9.40
2023-04-08T00:45:57.839Z,9.85
2023-04-08T00:48:25.380Z,9.00
2023-04-08T00:50:52.879Z,10.90
2023-04-08T00:53:20.317Z,9.82
2023-04-08T00:55:47.672Z,10.23
2023-04-08T00:58:15.939Z,9.50
2023-04-08T01:00:55.672Z,10.43
2023-04-08T01:03:43.512Z,9.73
2023-04-08T01:06:32.500Z,10.73
2023-04-08T01:09:01.077Z,10.23
2023-04-08T01:11:32.781Z,9.10
2023-04-08T01:14:06.398Z,10.52
2023-04-08T01:16:35.082Z,10.07
2023-04-08T01:19:03.278Z,9.10
2023-04-08T01:21:30.756Z,9.38
2023-04-08T01:24:09.353Z,9.85
2023-04-08T01:26:37.362Z,10.13
2023-04-08T01:29:06.138Z,9.57
2023-04-08T01:31:36.153Z,10.27
2023-04-08T01:34:06.472Z,9.07
2023-04-08T01:36:36.042Z,10.15
2023-04-08T01:39:05.792Z,10.20
2023-04-08T01:41:35.625Z,10.30
2023-04-08T01:44:04.757Z,9.00
2023-04-08T01:46:33.129Z,9.55
2023-04-08T01:49:00.996Z,8.60
2023-04-08T01:51:31.888Z,8.15
2023-04-08T01:53:59.365Z,8.65
2023-04-08T01:56:29.590Z,8.40
2023-04-08T01:59:00.292Z,8.80
2023-04-08T02:01:31.117Z,7.60
2023-04-08T02:03:59.431Z,8.07
2023-04-08T02:06:29.261Z,8.13
2023-04-08T02:08:56.848Z,7.95
2023-04-08T02:11:25.860Z,6.93
2023-04-08T02:13:53.564Z,7.88
2023-04-08T02:16:33.963Z,7.55
2023-04-08T02:19:09.819Z,7.40
2023-04-08T02:21:44.303Z,7.28
2023-04-08T02:24:33.840Z,7.55
2023-04-08T02:27:03.869Z,7.80
2023-04-08T02:29:32.772Z,7.43
2023-04-08T02:32:02.275Z,7.05
2023-04-08T02:34:31.044Z,6.50
2023-04-08T02:36:59.197Z,7.30
2023-04-08T02:39:33.355Z,6.28
2023-04-08T02:42:01.108Z,6.75
2023-04-08T02:44:28.526Z,6.80
2023-04-08T02:46:59.505Z,6.50
2023-04-08T02:49:27.114Z,6.28
2023-04-08T02:51:54.469Z,6.55
2023-04-08T02:54:21.989Z,6.47
2023-04-08T02:56:49.359Z,6.32
2023-04-08T02:59:16.716Z,6.10
2023-04-08T03:01:44.214Z,6.97
2023-04-08T03:04:11.612Z,5.93
2023-04-08T03:06:38.914Z,6.57
2023-04-08T03:09:06.322Z,6.75
2023-04-08T03:11:33.861Z,7.93
2023-04-08T03:14:01.365Z,7.45
2023-04-08T03:16:28.750Z,6.38
2023-04-08T03:18:56.103Z,6.32
2023-04-08T03:21:23.614Z,6.45
2023-04-08T03:23:51.056Z,6.35
2023-04-08T03:26:18.495Z,6.57
2023-04-08T03:28:46.010Z,6.18
2023-04-08T03:31:13.511Z,6.55
2023-04-08T03:33:40.933Z,5.95
2023-04-08T03:36:08.473Z,5.78
2023-04-08T03:38:35.908Z,5.90
2023-04-08T03:41:03.446Z,5.10
2023-04-08T03:43:30.833Z,5.93
2023-04-08T03:45:58.177Z,6.03
2023-04-08T03:48:25.539Z,6.45
2023-04-08T03:50:52.879Z,6.82
2023-04-08T03:53:20.281Z,6.75
2023-04-08T03:55:51.060Z,7.18
2023-04-08T03:58:18.393Z,8.05
2023-04-08T04:00:45.862Z,6.68
2023-04-08T04:03:13.466Z,7.72
2023-04-08T04:05:40.858Z,7.18
2023-04-08T04:08:09.480Z,7.70
2023-04-08T04:10:36.902Z,7.47
2023-04-08T04:13:04.260Z,7.65
2023-04-08T04:15:31.801Z,7.57
2023-04-08T04:17:59.220Z,8.35
2023-04-08T04:20:26.705Z,7.30
2023-04-08T04:22:54.033Z,8.07
2023-04-08T04:25:21.468Z,8.48
2023-04-08T04:27:48.750Z,8.57
2023-04-08T04:30:16.337Z,8.88
2023-04-08T04:32:43.782Z,8.52
2023-04-08T04:35:12.762Z,9.13
2023-04-08T04:37:40.220Z,9.02
2023-04-08T04:40:07.957Z,8.57
2023-04-08T04:42:35.440Z,10.35
2023-04-08T04:45:02.932Z,8.55
2023-04-08T04:47:32.596Z,8.55
2023-04-08T04:50:00.028Z,8.65
2023-04-08T04:52:27.433Z,9.15
2023-04-08T04:54:54.761Z,8.35
2023-04-08T04:57:22.086Z,9.15
2023-04-08T04:59:49.464Z,9.98
2023-04-08T05:02:17.011Z,9.65
2023-04-08T05:04:44.437Z,9.50
2023-04-08T05:07:11.789Z,9.90
2023-04-08T05:09:39.246Z,9.82
2023-04-08T05:12:06.766Z,10.05
2023-04-08T05:14:34.120Z,8.88
2023-04-08T05:17:01.627Z,10.52
2023-04-08T05:19:29.011Z,10.43
2023-04-08T05:21:56.301Z,10.27
2023-04-08T05:24:23.614Z,10.23
2023-04-08T05:26:53.316Z,10.73
2023-04-08T05:29:21.941Z,11.75
2023-04-08T05:31:49.526Z,10.30
2023-04-08T05:34:22.654Z,12.73
2023-04-08T05:36:53.528Z,13.43
2023-04-08T05:39:20.950Z,11.88
2023-04-08T05:41:48.347Z,11.98
2023-04-08T05:44:15.971Z,12.38
2023-04-08T05:46:43.419Z,12.20
2023-04-08T05:49:10.862Z,13.73
2023-04-08T05:51:39.276Z,13.35
2023-04-08T05:54:06.786Z,12.02
2023-04-08T05:56:34.910Z,12.55
2023-04-08T05:59:02.397Z,12.07
2023-04-08T06:01:29.874Z,11.93
2023-04-08T06:03:57.548Z,14.57
2023-04-08T06:06:26.054Z,12.40
2023-04-08T06:08:53.433Z,12.27
2023-04-08T06:11:20.716Z,13.63
2023-04-08T06:13:48.253Z,13.30
2023-04-08T06:16:21.094Z,13.35
2023-04-08T06:18:49.476Z,13.18
2023-04-08T06:21:17.105Z,12.25
2023-04-08T06:23:44.519Z,13.05
2023-04-08T06:26:11.908Z,12.40
2023-04-08T06:28:39.273Z,12.13
2023-04-08T06:31:07.713Z,11.75
2023-04-08T06:33:35.086Z,12.80
2023-04-08T06:36:07.202Z,12.45
2023-04-08T06:38:35.008Z,13.63
2023-04-08T06:41:03.723Z,11.90
2023-04-08T06:43:31.619Z,12.75
2023-04-08T06:45:59.486Z,13.52
2023-04-08T06:48:29.258Z,13.85
2023-04-08T06:50:57.629Z,12.88
2023-04-08T06:53:25.612Z,13.00
2023-04-08T06:55:53.071Z,12.57
2023-04-08T06:58:20.589Z,13.13
2023-04-08T07:00:48.285Z,13.18
2023-04-08T07:03:18.284Z,12.65
2023-04-08T07:05:45.715Z,12.25
2023-04-08T07:08:13.106Z,12.32
2023-04-08T07:10:40.613Z,12.63
2023-04-08T07:13:07.956Z,12.50
2023-04-08T07:15:35.344Z,12.63
2023-04-08T07:18:02.926Z,11.52
2023-04-08T07:20:32.238Z,12.15
2023-04-08T07:22:59.831Z,10.98
2023-04-08T07:25:27.180Z,11.38
2023-04-08T07:27:54.573Z,11.82
2023-04-08T07:30:22.282Z,11.30
2023-04-08T07:32:49.691Z,11.18
2023-04-08T07:35:24.403Z,10.18
2023-04-08T07:37:52.961Z,9.90
2023-04-08T07:40:20.846Z,10.68
2023-04-08T07:42:48.195Z,11.18
2023-04-08T07:45:16.306Z,10.13
2023-04-08T07:47:44.632Z,10.60
2023-04-08T07:50:12.103Z,10.70
2023-04-08T07:52:39.583Z,10.68
2023-04-08T07:55:07.415Z,11.30
2023-04-08T07:57:34.890Z,10.77
2023-04-08T08:00:03.621Z,10.02
2023-04-08T08:02:40.652Z,10.65
2023-04-08T08:05:08.441Z,11.52
2023-04-08T08:07:36.331Z,10.32
2023-04-08T08:10:03.778Z,11.35
2023-04-08T08:12:31.362Z,10.27
2023-04-08T08:14:59.182Z,11.48
2023-04-08T08:17:30.089Z,9.98
2023-04-08T08:19:57.802Z,10.40
2023-04-08T08:22:25.487Z,10.07
2023-04-08T08:24:57.789Z,11.25
2023-04-08T08:27:25.725Z,10.10
2023-04-08T08:29:53.198Z,8.35
2023-04-08T08:32:20.610Z,9.18
2023-04-08T08:34:47.986Z,10.13
2023-04-08T08:37:15.429Z,9.88
2023-04-08T08:39:42.871Z,9.68
2023-04-08T08:42:24.309Z,9.48
2023-04-08T08:44:54.564Z,9.30
2023-04-08T08:47:22.018Z,9.60
2023-04-08T08:49:49.500Z,8.50
2023-04-08T08:52:17.979Z,9.13
2023-04-08T08:54:46.453Z,9.73
2023-04-08T08:57:20.553Z,9.48
2023-04-08T08:59:48.005Z,9.32
2023-04-08T09:02:34.734Z,9.32
2023-04-08T09:05:04.048Z,8.73
2023-04-08T09:07:36.904Z,8.90
2023-04-08T09:10:04.644Z,8.63
2023-04-08T09:12:32.097Z,8.05
2023-04-08T09:15:10.073Z,7.80
2023-04-08T09:17:39.341Z,8.63
2023-04-08T09:20:15.386Z,8.65
2023-04-08T09:23:00.395Z,9.10
2023-04-08T09:28:00.311Z,7.78
2023-04-08T09:30:28.584Z,7.85
2023-04-08T09:32:59.220Z,7.80
2023-04-08T09:35:26.658Z,7.57
2023-04-08T09:37:54.131Z,7.40
2023-04-08T09:40:24.901Z,6.97
2023-04-08T09:42:54.142Z,8.10
2023-04-08T09:45:22.102Z,7.25
2023-04-08T09:48:13.421Z,7.32
2023-04-08T09:50:47.428Z,7.10
2023-04-08T09:53:18.936Z,7.07
2023-04-08T09:55:51.390Z,7.15
2023-04-08T09:58:39.558Z,6.82
2023-04-08T10:01:08.082Z,7.15
2023-04-08T10:03:55.153Z,7.40
2023-04-08T10:06:27.821Z,6.93
2023-04-08T10:08:56.859Z,7.75
2023-04-08T10:11:24.487Z,6.85
2023-04-08T10:13:52.489Z,6.95
2023-04-08T10:16:26.954Z,5.85
2023-04-08T10:18:57.751Z,7.15
2023-04-08T10:21:38.189Z,6.35
2023-04-08T10:24:12.030Z,6.70
2023-04-08T10:26:42.199Z,6.47
2023-04-08T10:29:18.652Z,6.90
2023-04-08T10:31:52.912Z,5.35
2023-04-08T10:34:26.313Z,7.15
2023-04-08T10:36:55.735Z,5.95
2023-04-08T10:39:23.427Z,5.35
2023-04-08T10:41:51.636Z,5.78
2023-04-08T10:44:23.529Z,5.45
2023-04-08T10:46:52.408Z,5.88
2023-04-08T10:49:20.247Z,5.93
2023-04-08T10:51:48.024Z,6.00
2023-04-08T10:54:17.649Z,5.82
2023-04-08T10:56:50.485Z,6.00
2023-04-08T10:59:27.252Z,5.35
2023-04-08T11:01:55.512Z,5.53
2023-04-08T11:04:25.862Z,5.10
2023-04-08T11:06:53.787Z,5.28
2023-04-08T11:09:21.335Z,4.60
2023-04-08T11:11:48.734Z,5.18
2023-04-08T11:14:19.690Z,5.20
2023-04-08T11:16:47.444Z,5.68
2023-04-08T11:19:15.408Z,5.57
2023-04-08T11:21:42.863Z,4.95
2023-04-08T11:24:14.465Z,6.05
2023-04-08T11:26:42.737Z,5.95
2023-04-08T11:29:14.233Z,5.38
2023-04-08T11:31:43.893Z,6.32
2023-04-08T11:34:11.563Z,5.60
2023-04-08T11:36:41.693Z,5.43
2023-04-08T11:39:12.604Z,4.93
2023-04-08T11:41:40.552Z,5.00
2023-04-08T11:44:08.339Z,5.63
2023-04-08T11:46:36.396Z,5.00
2023-04-08T11:49:06.628Z,5.78
2023-04-08T11:51:55.353Z,6.22
2023-04-08T11:54:30.641Z,6.03
2023-04-08T11:56:59.014Z,5.90
2023-04-08T11:59:29.035Z,6.00
2023-04-08T12:01:57.376Z,5.60
2023-04-08T12:04:25.059Z,5.97
2023-04-08T12:06:52.554Z,5.32
2023-04-08T12:09:19.956Z,5.60
2023-04-08T12:11:47.352Z,5.63
2023-04-08T12:14:15.374Z,5.43
2023-04-08T12:16:42.919Z,5.40
2023-04-08T12:19:10.622Z,5.18
2023-04-08T12:21:38.302Z,4.32
2023-04-08T12:24:05.828Z,5.70
2023-04-08T12:26:33.208Z,5.18
2023-04-08T12:29:00.761Z,5.18
2023-04-08T12:31:29.310Z,5.38
2023-04-08T12:33:56.644Z,5.70
2023-04-08T12:36:27.252Z,5.35
2023-04-08T12:38:54.717Z,4.70
2023-04-08T12:41:22.141Z,5.60
2023-04-08T12:43:49.532Z,5.43
2023-04-08T12:46:17.087Z,5.70
2023-04-08T12:48:47.372Z,5.88
2023-04-08T12:51:15.059Z,5.72
2023-04-08T12:53:42.476Z,5.32
2023-04-08T12:56:10.339Z,5.60
2023-04-08T12:58:37.746Z,5.80
2023-04-08T13:01:06.672Z,5.57
2023-04-08T13:03:36.069Z,5.93
2023-04-08T13:06:03.741Z,5.22
2023-04-08T13:08:51.440Z,5.40
2023-04-08T13:11:19.264Z,5.18
2023-04-08T13:13:47.153Z,5.40
2023-04-08T13:16:15.458Z,5.47
2023-04-08T13:18:43.299Z,6.00
2023-04-08T13:21:10.776Z,5.75
2023-04-08T13:23:38.288Z,5.47
2023-04-08T13:26:06.708Z,5.57
2023-04-08T13:28:38.707Z,5.10
2023-04-08T13:31:11.331Z,5.63
2023-04-08T13:33:38.987Z,5.47
2023-04-08T13:36:06.763Z,5.35
2023-04-08T13:38:34.322Z,6.15
2023-04-08T13:41:01.675Z,5.70
2023-04-08T13:43:29.391Z,6.13
2023-04-08T13:45:57.213Z,5.55
2023-04-08T13:48:24.613Z,5.50
2023-04-08T13:50:51.962Z,5.60
2023-04-08T13:53:19.360Z,6.10
2023-04-08T13:55:46.810Z,6.07
2023-04-08T13:58:22.885Z,6.13
2023-04-08T14:00:54.272Z,5.97
2023-04-08T14:03:22.337Z,6.10
2023-04-08T14:05:51.165Z,5.70
2023-04-08T14:08:25.204Z,6.45
2023-04-08T14:10:53.698Z,6.18
2023-04-08T14:13:21.264Z,5.75
2023-04-08T14:15:49.781Z,6.57
2023-04-08T14:18:20.179Z,6.15
2023-04-08T14:20:47.526Z,6.00
2023-04-08T14:23:14.934Z,6.28
2023-04-08T14:25:42.350Z,5.93
2023-04-08T14:28:09.818Z,6.03
2023-04-08T14:30:37.916Z,5.78
2023-04-08T14:37:47.030Z,6.63
2023-04-08T14:40:14.586Z,6.10
2023-04-08T14:42:42.115Z,6.18
2023-04-08T14:45:09.857Z,5.57
2023-04-08T14:47:37.214Z,5.70
2023-04-08T14:50:04.934Z,6.15
2023-04-08T14:52:32.291Z,6.10
2023-04-08T14:54:59.621Z,6.15
2023-04-08T14:57:27.318Z,6.10
2023-04-08T14:59:54.688Z,5.00
2023-04-08T15:02:22.175Z,4.70
2023-04-08T15:04:54.746Z,5.75
2023-04-08T15:12:13.802Z,5.55
2023-04-08T15:19:09.205Z,6.07
2023-04-08T15:21:36.614Z,5.80
2023-04-08T15:24:03.955Z,6.28
2023-04-08T15:26:31.673Z,5.75
2023-04-08T15:28:59.833Z,5.10
2023-04-08T15:31:27.392Z,6.28
2023-04-08T15:33:54.963Z,6.40
2023-04-08T15:36:24.132Z,6.55
2023-04-08T15:38:52.549Z,6.07
2023-04-08T15:41:22.120Z,6.32
2023-04-08T15:43:50.224Z,6.15
2023-04-08T15:46:21.460Z,5.55
2023-04-08T15:48:49.568Z,5.40
2023-04-08T15:51:17.242Z,5.88
2023-04-08T15:53:44.643Z,6.25
2023-04-08T15:56:18.776Z,5.97
2023-04-08T15:58:46.519Z,5.70
2023-04-08T16:01:13.884Z,5.95
2023-04-08T16:03:41.530Z,5.63
2023-04-08T16:06:09.406Z,5.40
2023-04-08T16:08:37.241Z,5.43
2023-04-08T16:11:06.520Z,5.80
2023-04-08T16:13:34.545Z,5.70
2023-04-08T16:16:02.987Z,5.32
2023-04-08T16:18:30.996Z,5.82
2023-04-08T16:20:58.433Z,6.10
2023-04-08T16:23:26.193Z,5.60
2023-04-08T16:25:53.610Z,6.78
2023-04-08T16:28:21.978Z,6.40
2023-04-08T16:31:20.361Z,5.55
2023-04-08T16:38:24.446Z,5.85
2023-04-08T16:40:52.469Z,6.47
2023-04-08T16:43:21.075Z,7.10
2023-04-08T16:45:48.620Z,7.13
2023-04-08T16:48:16.700Z,6.90
2023-04-08T16:50:44.358Z,7.18
2023-04-08T16:53:11.893Z,6.90
2023-04-08T16:55:39.293Z,6.72
2023-04-08T16:58:06.713Z,6.97
2023-04-08T17:05:01.299Z,6.72
2023-04-08T17:07:29.226Z,6.53
2023-04-08T17:09:57.035Z,6.32
2023-04-08T17:17:29.938Z,6.20
2023-04-08T17:19:57.332Z,6.03
2023-04-08T17:22:24.679Z,5.85
2023-04-08T17:24:51.998Z,6.70
2023-04-08T17:27:19.525Z,6.43
2023-04-08T17:29:46.868Z,6.25
2023-04-08T17:32:14.320Z,6.60
2023-04-08T17:34:41.927Z,7.57
2023-04-08T17:37:10.368Z,7.30
2023-04-08T17:39:40.995Z,8.00
2023-04-08T17:46:34.476Z,8.10
2023-04-08T17:49:01.954Z,8.43
2023-04-08T17:51:30.305Z,8.63
2023-04-08T17:53:57.855Z,8.23
2023-04-08T17:56:27.165Z,8.13
2023-04-08T17:58:54.583Z,8.93
2023-04-08T18:01:23.873Z,7.82
2023-04-08T18:03:51.984Z,9.23
2023-04-08T18:06:19.614Z,8.15
2023-04-08T18:08:47.019Z,8.57
2023-04-08T18:11:14.541Z,7.47
2023-04-08T18:13:42.093Z,8.85
2023-04-08T18:16:20.600Z,8.63
2023-04-08T18:18:48.744Z,8.38
2023-04-08T18:21:19.283Z,8.23
2023-04-08T18:23:47.053Z,8.10
2023-04-08T18:26:14.593Z,8.60
2023-04-08T18:28:42.072Z,9.30
2023-04-08T18:31:09.635Z,8.90
2023-04-08T18:33:39.064Z,8.50
2023-04-08T18:36:12.169Z,8.85
2023-04-08T18:38:41.311Z,8.50
2023-04-08T18:41:09.044Z,9.30
2023-04-08T18:43:36.503Z,9.30
2023-04-08T18:46:04.848Z,9.77
2023-04-08T18:48:33.193Z,9.27
2023-04-08T18:51:01.760Z,9.60
2023-04-08T18:53:29.157Z,8.80
2023-04-08T18:55:56.492Z,8.95
2023-04-08T18:58:24.130Z,8.95
2023-04-08T19:00:51.625Z,9.18
2023-04-08T19:03:19.468Z,8.80
2023-04-08T19:05:46.925Z,9.40
2023-04-08T19:08:14.579Z,9.32
2023-04-08T19:10:41.961Z,9.10
2023-04-08T19:13:09.292Z,8.88
2023-04-08T19:15:37.026Z,9.75
2023-04-08T19:18:05.653Z,10.07
2023-04-08T19:20:33.681Z,10.30
2023-04-08T19:23:01.064Z,10.10
2023-04-08T19:25:28.489Z,11.02
2023-04-08T19:27:56.292Z,11.07
2023-04-08T19:30:23.853Z,9.40
2023-04-08T19:37:48.138Z,9.68
2023-04-08T19:44:43.406Z,9.47
2023-04-08T19:47:10.891Z,9.90
2023-04-08T19:49:38.855Z,10.48
2023-04-08T19:52:06.425Z,9.65
2023-04-08T19:54:33.883Z,9.98
2023-04-08T19:57:01.274Z,10.10
2023-04-08T19:59:28.699Z,9.88
2023-04-08T20:01:56.399Z,10.00
2023-04-08T20:04:23.919Z,10.88
2023-04-08T20:06:51.469Z,10.73
2023-04-08T20:09:18.843Z,10.77
2023-04-08T20:11:46.241Z,10.95
2023-04-08T20:14:13.635Z,11.13
2023-04-08T20:16:40.923Z,9.30
2023-04-08T20:19:08.341Z,11.27
2023-04-08T20:21:35.682Z,11.52
2023-04-08T20:24:03.202Z,11.70
2023-04-08T20:26:30.600Z,11.13
2023-04-08T20:28:59.078Z,11.50
2023-04-08T20:31:26.788Z,11.55
2023-04-08T20:33:54.320Z,11.10
2023-04-08T20:36:22.824Z,11.35
2023-04-08T20:38:50.618Z,10.52
2023-04-08T20:41:19.996Z,10.30
2023-04-08T20:43:47.328Z,10.80
2023-04-08T20:46:14.719Z,10.43
2023-04-08T20:48:42.130Z,10.60
2023-04-08T20:51:09.705Z,10.68
2023-04-08T20:53:37.248Z,10.25
2023-04-08T20:56:04.937Z,10.15
2023-04-08T20:58:32.413Z,11.65
2023-04-08T21:00:59.917Z,10.82
2023-04-08T21:03:27.781Z,10.05
2023-04-08T21:05:56.285Z,11.00
2023-04-08T21:08:23.644Z,10.90
2023-04-08T21:10:51.186Z,10.30
2023-04-08T21:13:18.541Z,11.15
2023-04-08T21:15:45.902Z,10.98
2023-04-08T21:18:13.189Z,11.80
2023-04-08T21:20:41.123Z,10.52
2023-04-08T21:23:08.541Z,10.98
2023-04-08T21:25:35.987Z,11.30
2023-04-08T21:28:03.445Z,10.80
2023-04-08T21:30:30.831Z,11.30
2023-04-08T21:32:58.301Z,10.88
2023-04-08T21:35:26.020Z,11.30
2023-04-08T21:37:53.421Z,10.95
2023-04-08T21:40:20.882Z,10.95
2023-04-08T21:42:48.230Z,11.18
2023-04-08T21:45:16.989Z,10.13
2023-04-08T21:47:44.551Z,11.00
2023-04-08T21:50:11.923Z,10.82
2023-04-08T21:52:40.452Z,10.80
2023-04-08T21:55:09.868Z,11.60
2023-04-08T21:57:37.804Z,11.02
2023-04-08T22:00:13.034Z,11.32
2023-04-08T22:02:43.839Z,11.27
2023-04-08T22:05:11.843Z,11.85
2023-04-08T22:07:39.167Z,11.43
2023-04-08T22:10:07.380Z,11.18
2023-04-08T22:12:34.737Z,10.05
2023-04-08T22:15:02.346Z,11.45
2023-04-08T22:17:29.640Z,11.27
2023-04-08T22:19:57.009Z,11.15
2023-04-08T22:22:24.398Z,11.25
2023-04-08T22:24:51.705Z,10.65
2023-04-08T22:27:19.041Z,10.30
2023-04-08T22:29:46.555Z,11.07
2023-04-08T22:32:13.892Z,10.75
2023-04-08T22:34:41.430Z,10.23
2023-04-08T22:37:08.709Z,10.50
2023-04-08T22:39:36.035Z,11.95
2023-04-08T22:42:03.404Z,10.88
2023-04-08T22:44:30.903Z,11.07
2023-04-08T22:46:58.243Z,11.07
2023-04-08T22:49:25.575Z,10.50
2023-04-08T22:51:52.985Z,11.30
2023-04-08T22:54:20.590Z,11.02
2023-04-08T22:56:47.979Z,11.55
2023-04-08T22:59:15.418Z,11.02
2023-04-08T23:01:44.114Z,11.13
2023-04-08T23:04:11.581Z,10.82
2023-04-08T23:06:38.933Z,11.10
2023-04-08T23:09:06.272Z,10.80
2023-04-08T23:11:33.628Z,12.15
2023-04-08T23:14:01.038Z,11.48
2023-04-08T23:16:28.431Z,11.20
2023-04-08T23:18:55.884Z,10.60
2023-04-08T23:21:25.073Z,11.02
2023-04-08T23:23:52.383Z,11.57
2023-04-08T23:26:25.013Z,12.07
2023-04-08T23:28:52.851Z,11.07
2023-04-08T23:31:20.575Z,11.90
2023-04-08T23:33:47.944Z,12.02
2023-04-08T23:36:15.337Z,11.88
2023-04-08T23:38:42.654Z,11.50
2023-04-08T23:41:10.097Z,11.07
2023-04-08T23:43:37.452Z,12.18
2023-04-08T23:46:04.888Z,12.00
2023-04-08T23:48:32.246Z,12.05
2023-04-08T23:50:59.572Z,10.88
2023-04-08T23:53:26.965Z,11.30
2023-04-08T23:55:54.426Z,12.50
2023-04-08T23:58:21.724Z,12.70
